Jerramungup Jacup, Australia
Current Conditions -  °F | °C
As of 11:00 PM on Sunday 21 Dec 2014 (Local Time) from YABA Reporting Station
Overcast Overcast  
Wind Chill: 54°   Ceiling: 3600
Heat Index: 54°   Visibility: 6mi
Dew Point: 50°   Wind: 5mph
Humidity: 88%   Direction: 190°S
Pressure: 30.12"   Gusts: NA
Location:  33.72°S, 119.05°E
Report Text: YABA 211500Z AUTO 19004KT 9999 // OVC036 12/10 Q1020
Loading
Personal Weather Stations






























Interactive Weather Map New forecast layout! Learn more

10-Day Weather Forecast

Advertisements
Track Severe Weather on mobile